Garvin, Oklahoma
Current Conditions -  °F | °C
As of 4:55 AM on Wednesday 22 Oct 2014 (Local Time) from K4O4 Reporting Station
Scattered Clouds Scattered Clouds  
Wind Chill: 15°   Ceiling: Unl
Heat Index: 15°   Visibility: 7mi
Dew Point: 14°   Wind: 5mph
Humidity: 94%   Direction: 70°ENE
Pressure: 30.11"   Gusts: NA
Location:  33.95°N, 94.94°W
Report Text: K4O4 220955Z AUTO 07004KT 7SM SCT035 15/14 A3011 RMK AO2
Loading
Personal Weather Stations






























Interactive Weather Map
Tropical Storm Tracking
New forecast layout! Learn more

10-Day Weather Forecast

Advertisements
Track Severe Weather on mobile